sensor_id;sensor_type;location;lat;lon;timestamp;pressure;altitude;pressure_sealevel;temperature;humidity
67987;BME280;54767;53.800;15.956;2023-02-20T00:02:05;100471.10;;;1.57;72.74
67987;BME280;54767;53.800;15.956;2023-02-20T00:04:34;100465.95;;;1.58;72.61
67987;BME280;54767;53.800;15.956;2023-02-20T00:07:02;100462.48;;;1.62;72.88
67987;BME280;54767;53.800;15.956;2023-02-20T00:09:30;100466.94;;;1.65;72.72
67987;BME280;54767;53.800;15.956;2023-02-20T00:11:58;100461.13;;;1.66;72.87
67987;BME280;54767;53.800;15.956;2023-02-20T00:14:26;100463.66;;;1.65;72.89
67987;BME280;54767;53.800;15.956;2023-02-20T00:16:57;100464.48;;;1.64;73.04
67987;BME280;54767;53.800;15.956;2023-02-20T00:19:25;100453.05;;;1.63;73.15
67987;BME280;54767;53.800;15.956;2023-02-20T00:21:53;100441.66;;;1.62;73.14
67987;BME280;54767;53.800;15.956;2023-02-20T00:24:21;100432.72;;;1.64;73.18
67987;BME280;54767;53.800;15.956;2023-02-20T00:26:51;100425.87;;;1.65;73.22
67987;BME280;54767;53.800;15.956;2023-02-20T00:29:22;100427.34;;;1.67;73.32
67987;BME280;54767;53.800;15.956;2023-02-20T00:31:55;100437.21;;;1.68;73.28
67987;BME280;54767;53.800;15.956;2023-02-20T00:34:26;100436.83;;;1.67;73.11
67987;BME280;54767;53.800;15.956;2023-02-20T00:36:55;100430.76;;;1.66;73.36
67987;BME280;54767;53.800;15.956;2023-02-20T00:39:23;100426.41;;;1.65;73.29
67987;BME280;54767;53.800;15.956;2023-02-20T00:41:51;100427.71;;;1.63;73.40
67987;BME280;54767;53.800;15.956;2023-02-20T00:44:19;100431.33;;;1.63;73.42
67987;BME280;54767;53.800;15.956;2023-02-20T00:46:47;100424.34;;;1.65;73.57
67987;BME280;54767;53.800;15.956;2023-02-20T00:49:16;100419.55;;;1.66;73.60
67987;BME280;54767;53.800;15.956;2023-02-20T00:51:44;100414.92;;;1.67;73.60
67987;BME280;54767;53.800;15.956;2023-02-20T00:54:12;100403.36;;;1.67;73.59
67987;BME280;54767;53.800;15.956;2023-02-20T00:56:40;100403.17;;;1.66;73.63
67987;BME280;54767;53.800;15.956;2023-02-20T00:59:08;100392.94;;;1.65;73.62
67987;BME280;54767;53.800;15.956;2023-02-20T01:01:37;100380.82;;;1.64;73.88
67987;BME280;54767;53.800;15.956;2023-02-20T01:04:06;100383.05;;;1.64;73.75
67987;BME280;54767;53.800;15.956;2023-02-20T01:06:34;100389.67;;;1.66;73.78
67987;BME280;54767;53.800;15.956;2023-02-20T01:09:02;100394.77;;;1.68;73.64
67987;BME280;54767;53.800;15.956;2023-02-20T01:11:30;100380.17;;;1.70;74.03
67987;BME280;54767;53.800;15.956;2023-02-20T01:13:58;100369.84;;;1.70;74.03
67987;BME280;54767;53.800;15.956;2023-02-20T01:16:27;100365.98;;;1.68;74.28
67987;BME280;54767;53.800;15.956;2023-02-20T01:18:55;100359.95;;;1.68;74.08
67987;BME280;54767;53.800;15.956;2023-02-20T01:21:23;100351.91;;;1.70;74.25
67987;BME280;54767;53.800;15.956;2023-02-20T01:23:51;100355.80;;;1.72;74.14
67987;BME280;54767;53.800;15.956;2023-02-20T01:26:20;100367.17;;;1.77;74.36
67987;BME280;54767;53.800;15.956;2023-02-20T01:28:48;100366.55;;;1.79;74.30
67987;BME280;54767;53.800;15.956;2023-02-20T01:31:16;100364.32;;;1.78;74.32
67987;BME280;54767;53.800;15.956;2023-02-20T01:33:44;100364.83;;;1.78;74.32
67987;BME280;54767;53.800;15.956;2023-02-20T01:36:13;100364.41;;;1.77;74.38
67987;BME280;54767;53.800;15.956;2023-02-20T01:38:41;100356.42;;;1.75;74.36
67987;BME280;54767;53.800;15.956;2023-02-20T01:41:10;100351.30;;;1.77;74.45
67987;BME280;54767;53.800;15.956;2023-02-20T01:43:39;100349.17;;;1.79;74.48
67987;BME280;54767;53.800;15.956;2023-02-20T01:49:15;100332.46;;;1.80;74.45
67987;BME280;54767;53.800;15.956;2023-02-20T01:51:55;100326.86;;;1.78;74.67
67987;BME280;54767;53.800;15.956;2023-02-20T01:54:27;100320.29;;;1.78;74.55
67987;BME280;54767;53.800;15.956;2023-02-20T01:56:59;100320.23;;;1.76;74.77
67987;BME280;54767;53.800;15.956;2023-02-20T01:59:31;100325.95;;;1.77;74.82
67987;BME280;54767;53.800;15.956;2023-02-20T02:02:02;100329.48;;;1.79;74.84
67987;BME280;54767;53.800;15.956;2023-02-20T02:04:33;100326.33;;;1.83;74.89
67987;BME280;54767;53.800;15.956;2023-02-20T02:07:02;100330.18;;;1.84;74.82
67987;BME280;54767;53.800;15.956;2023-02-20T02:09:52;100328.27;;;1.84;75.06
67987;BME280;54767;53.800;15.956;2023-02-20T02:12:22;100322.92;;;1.84;75.10
67987;BME280;54767;53.800;15.956;2023-02-20T02:14:50;100314.09;;;1.83;75.09
67987;BME280;54767;53.800;15.956;2023-02-20T02:17:42;100305.80;;;1.83;75.29
67987;BME280;54767;53.800;15.956;2023-02-20T02:43:17;100272.36;;;1.97;75.54
67987;BME280;54767;53.800;15.956;2023-02-20T02:45:55;100269.24;;;1.97;75.59
67987;BME280;54767;53.800;15.956;2023-02-20T02:48:34;100261.96;;;1.96;75.66
67987;BME280;54767;53.800;15.956;2023-02-20T02:51:11;100255.44;;;1.97;75.63
67987;BME280;54767;53.800;15.956;2023-02-20T02:53:40;100250.22;;;2.01;75.71
67987;BME280;54767;53.800;15.956;2023-02-20T02:56:09;100245.16;;;2.03;75.82
67987;BME280;54767;53.800;15.956;2023-02-20T02:58:52;100240.21;;;2.06;75.92
67987;BME280;54767;53.800;15.956;2023-02-20T03:01:22;100226.64;;;2.08;75.97
67987;BME280;54767;53.800;15.956;2023-02-20T03:03:51;100224.96;;;2.09;75.91
67987;BME280;54767;53.800;15.956;2023-02-20T03:06:27;100219.80;;;2.10;76.17
67987;BME280;54767;53.800;15.956;2023-02-20T03:09:17;100209.40;;;2.13;76.05
67987;BME280;54767;53.800;15.956;2023-02-20T03:11:47;100204.30;;;2.15;76.09
67987;BME280;54767;53.800;15.956;2023-02-20T03:14:40;100202.11;;;2.17;76.16
67987;BME280;54767;53.800;15.956;2023-02-20T03:20:08;100196.70;;;2.20;76.39
67987;BME280;54767;53.800;15.956;2023-02-20T03:22:43;100190.13;;;2.20;76.44
67987;BME280;54767;53.800;15.956;2023-02-20T03:25:25;100178.67;;;2.23;76.47
67987;BME280;54767;53.800;15.956;2023-02-20T03:27:58;100178.57;;;2.25;76.52
67987;BME280;54767;53.800;15.956;2023-02-20T03:30:29;100176.41;;;2.28;76.57
67987;BME280;54767;53.800;15.956;2023-02-20T03:33:05;100169.38;;;2.29;76.59
67987;BME280;54767;53.800;15.956;2023-02-20T03:35:54;100169.92;;;2.29;76.75
67987;BME280;54767;53.800;15.956;2023-02-20T03:38:46;100165.23;;;2.29;76.70
67987;BME280;54767;53.800;15.956;2023-02-20T03:41:37;100156.98;;;2.31;76.87
67987;BME280;54767;53.800;15.956;2023-02-20T03:44:26;100152.27;;;2.34;76.70
67987;BME280;54767;53.800;15.956;2023-02-20T03:46:55;100147.48;;;2.35;76.79
67987;BME280;54767;53.800;15.956;2023-02-20T03:49:36;100144.73;;;2.35;76.85
67987;BME280;54767;53.800;15.956;2023-02-20T03:52:06;100141.23;;;2.34;77.05
67987;BME280;54767;53.800;15.956;2023-02-20T03:54:35;100139.83;;;2.34;77.04
67987;BME280;54767;53.800;15.956;2023-02-20T03:57:07;100135.91;;;2.35;77.06
67987;BME280;54767;53.800;15.956;2023-02-20T03:59:42;100131.34;;;2.38;77.09
67987;BME280;54767;53.800;15.956;2023-02-20T04:02:25;100123.77;;;2.39;77.04
67987;BME280;54767;53.800;15.956;2023-02-20T04:04:59;100122.38;;;2.38;77.22
67987;BME280;54767;53.800;15.956;2023-02-20T04:07:36;100116.46;;;2.37;77.25
67987;BME280;54767;53.800;15.956;2023-02-20T04:10:11;100111.63;;;2.37;77.34
67987;BME280;54767;53.800;15.956;2023-02-20T04:12:43;100105.81;;;2.39;77.22
67987;BME280;54767;53.800;15.956;2023-02-20T04:15:13;100099.65;;;2.41;77.36
67987;BME280;54767;53.800;15.956;2023-02-20T04:17:46;100086.88;;;2.41;77.41
67987;BME280;54767;53.800;15.956;2023-02-20T04:20:15;100079.02;;;2.38;77.32
67987;BME280;54767;53.800;15.956;2023-02-20T04:22:46;100074.27;;;2.35;77.23
67987;BME280;54767;53.800;15.956;2023-02-20T04:25:38;100067.11;;;2.33;77.40
67987;BME280;54767;53.800;15.956;2023-02-20T04:28:07;100063.32;;;2.34;77.38
67987;BME280;54767;53.800;15.956;2023-02-20T04:30:36;100058.30;;;2.33;77.40
67987;BME280;54767;53.800;15.956;2023-02-20T04:33:05;100057.57;;;2.31;77.40
67987;BME280;54767;53.800;15.956;2023-02-20T04:35:33;100049.55;;;2.29;77.42
67987;BME280;54767;53.800;15.956;2023-02-20T04:38:01;100042.40;;;2.27;77.53
67987;BME280;54767;53.800;15.956;2023-02-20T04:40:29;100027.16;;;2.25;77.61
67987;BME280;54767;53.800;15.956;2023-02-20T04:42:57;100018.23;;;2.27;77.63
67987;BME280;54767;53.800;15.956;2023-02-20T04:45:25;100014.05;;;2.26;77.65
67987;BME280;54767;53.800;15.956;2023-02-20T04:47:54;100011.93;;;2.24;77.61
67987;BME280;54767;53.800;15.956;2023-02-20T04:50:31;100004.60;;;2.22;77.82
67987;BME280;54767;53.800;15.956;2023-02-20T04:53:00;99997.96;;;2.19;77.79
67987;BME280;54767;53.800;15.956;2023-02-20T04:55:28;99996.36;;;2.18;77.87
67987;BME280;54767;53.800;15.956;2023-02-20T04:57:56;99985.88;;;2.19;77.95
67987;BME280;54767;53.800;15.956;2023-02-20T05:00:26;99981.27;;;2.20;77.96
67987;BME280;54767;53.800;15.956;2023-02-20T05:02:54;99976.02;;;2.19;77.98
67987;BME280;54767;53.800;15.956;2023-02-20T05:05:26;99961.30;;;2.17;78.00
67987;BME280;54767;53.800;15.956;2023-02-20T05:08:03;99951.57;;;2.16;78.25
67987;BME280;54767;53.800;15.956;2023-02-20T05:10:33;99947.75;;;2.14;78.26
67987;BME280;54767;53.800;15.956;2023-02-20T05:13:02;99941.58;;;2.16;78.33
67987;BME280;54767;53.800;15.956;2023-02-20T05:15:31;99945.35;;;2.15;78.41
67987;BME280;54767;53.800;15.956;2023-02-20T05:17:59;99939.64;;;2.14;78.57
67987;BME280;54767;53.800;15.956;2023-02-20T05:20:27;99937.55;;;2.14;78.68
67987;BME280;54767;53.800;15.956;2023-02-20T05:23:16;99923.58;;;2.14;78.64
67987;BME280;54767;53.800;15.956;2023-02-20T05:25:44;99925.52;;;2.16;78.78
67987;BME280;54767;53.800;15.956;2023-02-20T05:28:12;99931.27;;;2.18;78.81
67987;BME280;54767;53.800;15.956;2023-02-20T05:30:40;99944.59;;;2.19;78.87
67987;BME280;54767;53.800;15.956;2023-02-20T05:33:09;99941.61;;;2.17;78.97
67987;BME280;54767;53.800;15.956;2023-02-20T05:35:37;99930.86;;;2.16;79.04
67987;BME280;54767;53.800;15.956;2023-02-20T05:38:07;99917.24;;;2.17;79.10
67987;BME280;54767;53.800;15.956;2023-02-20T05:40:35;99913.51;;;2.18;79.15
67987;BME280;54767;53.800;15.956;2023-02-20T05:43:03;99905.44;;;2.20;79.15
67987;BME280;54767;53.800;15.956;2023-02-20T05:45:31;99894.73;;;2.19;79.16
67987;BME280;54767;53.800;15.956;2023-02-20T05:47:59;99889.87;;;2.19;79.14
67987;BME280;54767;53.800;15.956;2023-02-20T05:50:27;99882.09;;;2.18;79.28
67987;BME280;54767;53.800;15.956;2023-02-20T05:52:56;99868.34;;;2.20;79.16
67987;BME280;54767;53.800;15.956;2023-02-20T05:55:24;99856.63;;;2.21;79.27
67987;BME280;54767;53.800;15.956;2023-02-20T05:57:52;99843.48;;;2.20;79.33
67987;BME280;54767;53.800;15.956;2023-02-20T06:00:20;99834.45;;;2.19;79.51
67987;BME280;54767;53.800;15.956;2023-02-20T06:02:48;99828.91;;;2.18;79.52
67987;BME280;54767;53.800;15.956;2023-02-20T06:05:16;99828.63;;;2.20;79.63
67987;BME280;54767;53.800;15.956;2023-02-20T06:07:45;99828.87;;;2.23;79.72
67987;BME280;54767;53.800;15.956;2023-02-20T06:10:14;99827.73;;;2.25;79.71
67987;BME280;54767;53.800;15.956;2023-02-20T06:12:42;99817.58;;;2.26;79.93
67987;BME280;54767;53.800;15.956;2023-02-20T06:15:10;99807.20;;;2.26;79.98
67987;BME280;54767;53.800;15.956;2023-02-20T06:17:38;99807.08;;;2.28;80.15
67987;BME280;54767;53.800;15.956;2023-02-20T06:20:07;99804.58;;;2.31;80.09
67987;BME280;54767;53.800;15.956;2023-02-20T06:22:35;99795.52;;;2.34;80.17
67987;BME280;54767;53.800;15.956;2023-02-20T06:25:04;99785.00;;;2.35;80.17
67987;BME280;54767;53.800;15.956;2023-02-20T06:27:33;99783.81;;;2.35;80.32
67987;BME280;54767;53.800;15.956;2023-02-20T06:30:01;99783.15;;;2.36;80.41
67987;BME280;54767;53.800;15.956;2023-02-20T06:32:29;99775.27;;;2.39;80.60
67987;BME280;54767;53.800;15.956;2023-02-20T06:34:57;99775.53;;;2.42;80.48
67987;BME280;54767;53.800;15.956;2023-02-20T06:37:25;99771.61;;;2.44;80.74
67987;BME280;54767;53.800;15.956;2023-02-20T06:39:53;99768.17;;;2.44;80.68
67987;BME280;54767;53.800;15.956;2023-02-20T06:42:22;99768.77;;;2.47;80.85
67987;BME280;54767;53.800;15.956;2023-02-20T06:44:50;99783.52;;;2.50;81.05
67987;BME280;54767;53.800;15.956;2023-02-20T06:47:18;99769.27;;;2.54;80.84
67987;BME280;54767;53.800;15.956;2023-02-20T06:49:47;99762.73;;;2.54;80.99
67987;BME280;54767;53.800;15.956;2023-02-20T06:52:15;99762.93;;;2.55;80.95
67987;BME280;54767;53.800;15.956;2023-02-20T06:54:43;99749.66;;;2.57;81.26
67987;BME280;54767;53.800;15.956;2023-02-20T06:57:11;99746.83;;;2.60;81.24
67987;BME280;54767;53.800;15.956;2023-02-20T06:59:39;99748.64;;;2.64;81.29
67987;BME280;54767;53.800;15.956;2023-02-20T07:02:13;99758.53;;;2.65;81.11
67987;BME280;54767;53.800;15.956;2023-02-20T07:04:41;99746.79;;;2.66;81.26
67987;BME280;54767;53.800;15.956;2023-02-20T07:07:09;99733.55;;;2.68;81.61
67987;BME280;54767;53.800;15.956;2023-02-20T07:09:37;99721.55;;;2.71;81.51
67987;BME280;54767;53.800;15.956;2023-02-20T07:12:06;99729.06;;;2.75;81.66
67987;BME280;54767;53.800;15.956;2023-02-20T07:14:34;99713.74;;;2.78;81.61
67987;BME280;54767;53.800;15.956;2023-02-20T07:17:02;99696.81;;;2.77;81.58
67987;BME280;54767;53.800;15.956;2023-02-20T07:19:30;99686.34;;;2.80;81.62
67987;BME280;54767;53.800;15.956;2023-02-20T07:21:58;99686.12;;;2.85;81.70
67987;BME280;54767;53.800;15.956;2023-02-20T07:24:26;99687.56;;;2.87;81.86
67987;BME280;54767;53.800;15.956;2023-02-20T07:26:55;99683.95;;;2.89;81.92
67987;BME280;54767;53.800;15.956;2023-02-20T07:29:22;99677.77;;;2.90;82.17
67987;BME280;54767;53.800;15.956;2023-02-20T07:31:50;99670.21;;;2.92;82.30
67987;BME280;54767;53.800;15.956;2023-02-20T07:34:18;99668.29;;;2.99;82.21
67987;BME280;54767;53.800;15.956;2023-02-20T07:36:46;99655.73;;;3.02;82.34
67987;BME280;54767;53.800;15.956;2023-02-20T07:39:14;99647.48;;;3.04;82.34
67987;BME280;54767;53.800;15.956;2023-02-20T07:41:43;99636.99;;;3.06;82.59
67987;BME280;54767;53.800;15.956;2023-02-20T07:44:11;99627.73;;;3.09;82.42
67987;BME280;54767;53.800;15.956;2023-02-20T07:46:41;99610.35;;;3.13;82.66
67987;BME280;54767;53.800;15.956;2023-02-20T07:49:10;99594.17;;;3.16;82.56
67987;BME280;54767;53.800;15.956;2023-02-20T07:51:38;99576.39;;;3.18;82.55
67987;BME280;54767;53.800;15.956;2023-02-20T07:54:06;99551.71;;;3.21;82.62
67987;BME280;54767;53.800;15.956;2023-02-20T07:56:34;99544.17;;;3.23;83.00
67987;BME280;54767;53.800;15.956;2023-02-20T07:59:02;99529.19;;;3.27;82.83
67987;BME280;54767;53.800;15.956;2023-02-20T08:01:31;99520.63;;;3.30;83.09
67987;BME280;54767;53.800;15.956;2023-02-20T08:03:59;99513.23;;;3.33;83.13
67987;BME280;54767;53.800;15.956;2023-02-20T08:06:27;99492.33;;;3.34;83.07
67987;BME280;54767;53.800;15.956;2023-02-20T08:08:55;99510.19;;;3.36;83.19
67987;BME280;54767;53.800;15.956;2023-02-20T08:11:24;99497.81;;;3.40;83.21
67987;BME280;54767;53.800;15.956;2023-02-20T08:13:52;99520.04;;;3.45;83.50
67987;BME280;54767;53.800;15.956;2023-02-20T08:16:22;99504.54;;;3.48;83.27
67987;BME280;54767;53.800;15.956;2023-02-20T08:18:52;99508.35;;;3.50;83.42
67987;BME280;54767;53.800;15.956;2023-02-20T08:21:21;99499.45;;;3.54;83.36
67987;BME280;54767;53.800;15.956;2023-02-20T08:23:49;99503.33;;;3.58;83.53
67987;BME280;54767;53.800;15.956;2023-02-20T08:26:20;99516.17;;;3.61;83.69
67987;BME280;54767;53.800;15.956;2023-02-20T08:28:49;99498.92;;;3.63;83.91
67987;BME280;54767;53.800;15.956;2023-02-20T08:31:18;99492.21;;;3.65;84.06
67987;BME280;54767;53.800;15.956;2023-02-20T08:33:59;99486.75;;;3.69;83.89
67987;BME280;54767;53.800;15.956;2023-02-20T08:36:27;99463.99;;;3.74;83.92
67987;BME280;54767;53.800;15.956;2023-02-20T08:38:56;99456.26;;;3.78;83.74
67987;BME280;54767;53.800;15.956;2023-02-20T08:41:25;99449.02;;;3.80;84.01
67987;BME280;54767;53.800;15.956;2023-02-20T08:43:54;99443.38;;;3.84;84.22
67987;BME280;54767;53.800;15.956;2023-02-20T08:46:22;99440.69;;;3.89;83.90
67987;BME280;54767;53.800;15.956;2023-02-20T08:48:50;99458.94;;;3.94;83.57
67987;BME280;54767;53.800;15.956;2023-02-20T08:51:19;99421.23;;;3.96;84.14
67987;BME280;54767;53.800;15.956;2023-02-20T08:53:48;99432.55;;;3.99;84.28
67987;BME280;54767;53.800;15.956;2023-02-20T08:56:20;99438.48;;;4.03;83.80
67987;BME280;54767;53.800;15.956;2023-02-20T08:58:48;99431.10;;;4.07;84.04
67987;BME280;54767;53.800;15.956;2023-02-20T09:01:17;99425.80;;;4.12;83.98
67987;BME280;54767;53.800;15.956;2023-02-20T09:03:45;99421.34;;;4.15;83.78
67987;BME280;54767;53.800;15.956;2023-02-20T09:06:13;99411.67;;;4.17;83.98
67987;BME280;54767;53.800;15.956;2023-02-20T09:08:42;99415.57;;;4.22;84.10
67987;BME280;54767;53.800;15.956;2023-02-20T09:11:10;99411.31;;;4.27;84.14
67987;BME280;54767;53.800;15.956;2023-02-20T09:13:46;99396.80;;;4.30;84.15
67987;BME280;54767;53.800;15.956;2023-02-20T09:16:18;99396.66;;;4.33;84.56
67987;BME280;54767;53.800;15.956;2023-02-20T09:18:47;99386.31;;;4.37;84.68
67987;BME280;54767;53.800;15.956;2023-02-20T09:21:18;99381.73;;;4.42;84.24
67987;BME280;54767;53.800;15.956;2023-02-20T09:23:46;99380.22;;;4.47;84.65
67987;BME280;54767;53.800;15.956;2023-02-20T09:26:15;99378.88;;;4.50;84.08
67987;BME280;54767;53.800;15.956;2023-02-20T09:28:43;99375.44;;;4.53;84.29
67987;BME280;54767;53.800;15.956;2023-02-20T09:31:11;99357.83;;;4.58;84.48
67987;BME280;54767;53.800;15.956;2023-02-20T09:33:46;99361.02;;;4.63;84.45
67987;BME280;54767;53.800;15.956;2023-02-20T09:36:18;99350.65;;;4.67;84.64
67987;BME280;54767;53.800;15.956;2023-02-20T09:38:47;99340.10;;;4.69;84.48
67987;BME280;54767;53.800;15.956;2023-02-20T09:44:17;99348.02;;;4.81;84.28
67987;BME280;54767;53.800;15.956;2023-02-20T09:46:51;99357.98;;;4.87;84.17
67987;BME280;54767;53.800;15.956;2023-02-20T09:49:23;99336.70;;;4.91;83.94
67987;BME280;54767;53.800;15.956;2023-02-20T09:51:57;99334.48;;;4.94;84.10
67987;BME280;54767;53.800;15.956;2023-02-20T09:54:36;99354.80;;;4.98;84.20
67987;BME280;54767;53.800;15.956;2023-02-20T09:57:12;99347.41;;;5.03;84.08
67987;BME280;54767;53.800;15.956;2023-02-20T10:02:38;99336.16;;;5.08;84.04
67987;BME280;54767;53.800;15.956;2023-02-20T10:05:28;99340.88;;;5.10;83.95
67987;BME280;54767;53.800;15.956;2023-02-20T10:07:56;99335.03;;;5.15;84.21
67987;BME280;54767;53.800;15.956;2023-02-20T10:10:32;99336.45;;;5.18;83.70
67987;BME280;54767;53.800;15.956;2023-02-20T10:16:03;99333.17;;;5.21;84.02
67987;BME280;54767;53.800;15.956;2023-02-20T10:18:55;99331.81;;;5.24;83.99
67987;BME280;54767;53.800;15.956;2023-02-20T10:21:46;99328.55;;;5.28;83.88
67987;BME280;54767;53.800;15.956;2023-02-20T10:24:42;99335.16;;;5.31;84.02
67987;BME280;54767;53.800;15.956;2023-02-20T10:30:30;99334.67;;;5.34;83.89
67987;BME280;54767;53.800;15.956;2023-02-20T10:39:10;99333.70;;;5.41;83.72
67987;BME280;54767;53.800;15.956;2023-02-20T10:41:57;99336.48;;;5.41;83.84
67987;BME280;54767;53.800;15.956;2023-02-20T10:47:06;99334.08;;;5.48;83.53
67987;BME280;54767;53.800;15.956;2023-02-20T10:49:42;99339.84;;;5.50;83.78
67987;BME280;54767;53.800;15.956;2023-02-20T10:52:16;99341.40;;;5.52;83.81
67987;BME280;54767;53.800;15.956;2023-02-20T10:55:07;99326.48;;;5.52;83.67
67987;BME280;54767;53.800;15.956;2023-02-20T10:57:40;99328.39;;;5.52;83.54
67987;BME280;54767;53.800;15.956;2023-02-20T11:00:19;99324.42;;;5.55;83.27
67987;BME280;54767;53.800;15.956;2023-02-20T11:03:11;99316.12;;;5.57;83.66
67987;BME280;54767;53.800;15.956;2023-02-20T11:05:46;99315.60;;;5.58;83.61
67987;BME280;54767;53.800;15.956;2023-02-20T11:08:17;99313.19;;;5.59;83.43
67987;BME280;54767;53.800;15.956;2023-02-20T11:10:48;99306.09;;;5.61;83.46
67987;BME280;54767;53.800;15.956;2023-02-20T11:13:22;99301.77;;;5.65;83.78
67987;BME280;54767;53.800;15.956;2023-02-20T11:15:53;99297.27;;;5.69;83.52
67987;BME280;54767;53.800;15.956;2023-02-20T11:20:53;99277.84;;;5.71;83.85
67987;BME280;54767;53.800;15.956;2023-02-20T11:23:42;99274.72;;;5.72;83.92
67987;BME280;54767;53.800;15.956;2023-02-20T11:29:14;99270.09;;;5.81;84.07
67987;BME280;54767;53.800;15.956;2023-02-20T11:31:44;99273.92;;;5.83;83.98
67987;BME280;54767;53.800;15.956;2023-02-20T11:34:20;99276.70;;;5.84;83.91
67987;BME280;54767;53.800;15.956;2023-02-20T11:36:53;99269.60;;;5.87;83.94
67987;BME280;54767;53.800;15.956;2023-02-20T11:39:27;99261.11;;;5.90;83.82
67987;BME280;54767;53.800;15.956;2023-02-20T11:42:15;99252.32;;;5.93;84.00
67987;BME280;54767;53.800;15.956;2023-02-20T11:44:45;99240.15;;;5.95;83.93
67987;BME280;54767;53.800;15.956;2023-02-20T11:47:23;99238.94;;;5.96;83.88
67987;BME280;54767;53.800;15.956;2023-02-20T11:50:08;99243.30;;;5.98;84.02
67987;BME280;54767;53.800;15.956;2023-02-20T11:52:58;99230.29;;;6.03;84.19
67987;BME280;54767;53.800;15.956;2023-02-20T11:55:27;99224.75;;;6.07;83.95
67987;BME280;54767;53.800;15.956;2023-02-20T11:57:56;99226.15;;;6.09;84.04
67987;BME280;54767;53.800;15.956;2023-02-20T12:00:27;99218.85;;;6.10;84.36
67987;BME280;54767;53.800;15.956;2023-02-20T12:05:40;99222.52;;;6.16;83.95
67987;BME280;54767;53.800;15.956;2023-02-20T12:08:51;99219.59;;;6.20;84.02
67987;BME280;54767;53.800;15.956;2023-02-20T12:11:25;99218.38;;;6.23;84.04
67987;BME280;54767;53.800;15.956;2023-02-20T12:13:56;99195.61;;;6.24;84.13
67987;BME280;54767;53.800;15.956;2023-02-20T12:16:31;99201.36;;;6.26;84.02
67987;BME280;54767;53.800;15.956;2023-02-20T12:19:59;99212.14;;;6.30;84.02
67987;BME280;54767;53.800;15.956;2023-02-20T12:22:27;99201.20;;;6.32;84.23
67987;BME280;54767;53.800;15.956;2023-02-20T12:28:08;99221.89;;;6.37;83.99
67987;BME280;54767;53.800;15.956;2023-02-20T12:36:30;99193.05;;;6.45;83.83
67987;BME280;54767;53.800;15.956;2023-02-20T12:45:13;99169.95;;;6.50;83.84
67987;BME280;54767;53.800;15.956;2023-02-20T12:47:44;99159.35;;;6.53;83.78
67987;BME280;54767;53.800;15.956;2023-02-20T12:55:51;99149.62;;;6.58;83.77
67987;BME280;54767;53.800;15.956;2023-02-20T12:58:41;99148.75;;;6.61;83.88
67987;BME280;54767;53.800;15.956;2023-02-20T13:01:15;99149.64;;;6.63;83.79
67987;BME280;54767;53.800;15.956;2023-02-20T13:04:19;99145.80;;;6.64;83.91
67987;BME280;54767;53.800;15.956;2023-02-20T13:09:27;99147.89;;;6.68;83.76
67987;BME280;54767;53.800;15.956;2023-02-20T13:12:08;99149.11;;;6.71;83.73
67987;BME280;54767;53.800;15.956;2023-02-20T13:25:46;99159.71;;;6.80;83.76
67987;BME280;54767;53.800;15.956;2023-02-20T13:33:40;99151.37;;;6.84;83.89
67987;BME280;54767;53.800;15.956;2023-02-20T13:36:38;99134.15;;;6.84;83.91
67987;BME280;54767;53.800;15.956;2023-02-20T13:41:56;99139.70;;;6.87;83.98
67987;BME280;54767;53.800;15.956;2023-02-20T13:49:56;99108.05;;;6.89;84.04
67987;BME280;54767;53.800;15.956;2023-02-20T13:52:43;99108.75;;;6.92;84.15
67987;BME280;54767;53.800;15.956;2023-02-20T13:55:24;99105.45;;;6.92;84.26
67987;BME280;54767;53.800;15.956;2023-02-20T14:03:23;99100.04;;;6.98;84.29
67987;BME280;54767;53.800;15.956;2023-02-20T14:06:02;99105.10;;;6.98;84.30
67987;BME280;54767;53.800;15.956;2023-02-20T14:08:31;99098.64;;;6.99;84.49
67987;BME280;54767;53.800;15.956;2023-02-20T14:11:08;99106.30;;;7.01;84.47
67987;BME280;54767;53.800;15.956;2023-02-20T14:13:39;99101.95;;;7.03;84.48
67987;BME280;54767;53.800;15.956;2023-02-20T14:16:32;99101.95;;;7.03;84.50
67987;BME280;54767;53.800;15.956;2023-02-20T14:19:14;99092.73;;;7.02;84.66
67987;BME280;54767;53.800;15.956;2023-02-20T14:21:43;99091.16;;;7.04;84.68
67987;BME280;54767;53.800;15.956;2023-02-20T14:24:28;99092.88;;;7.08;84.74
67987;BME280;54767;53.800;15.956;2023-02-20T14:26:56;99089.23;;;7.09;84.59
67987;BME280;54767;53.800;15.956;2023-02-20T14:29:28;99086.27;;;7.09;84.71
67987;BME280;54767;53.800;15.956;2023-02-20T14:31:59;99089.07;;;7.07;84.65
67987;BME280;54767;53.800;15.956;2023-02-20T14:42:23;99098.45;;;7.13;84.79
67987;BME280;54767;53.800;15.956;2023-02-20T14:44:59;99096.88;;;7.13;85.02
67987;BME280;54767;53.800;15.956;2023-02-20T14:47:28;99092.17;;;7.13;85.06
67987;BME280;54767;53.800;15.956;2023-02-20T14:50:22;99094.60;;;7.15;85.09
67987;BME280;54767;53.800;15.956;2023-02-20T14:53:17;99089.72;;;7.21;85.14
67987;BME280;54767;53.800;15.956;2023-02-20T14:55:48;99096.15;;;7.25;85.05
67987;BME280;54767;53.800;15.956;2023-02-20T14:58:19;99094.39;;;7.26;84.92
67987;BME280;54767;53.800;15.956;2023-02-20T15:00:50;99098.05;;;7.25;84.98
67987;BME280;54767;53.800;15.956;2023-02-20T15:03:24;99104.86;;;7.24;85.10
67987;BME280;54767;53.800;15.956;2023-02-20T15:06:00;99106.23;;;7.25;85.09
67987;BME280;54767;53.800;15.956;2023-02-20T15:08:34;99098.93;;;7.26;84.94
67987;BME280;54767;53.800;15.956;2023-02-20T15:11:12;99096.84;;;7.27;85.03
67987;BME280;54767;53.800;15.956;2023-02-20T15:13:43;99095.45;;;7.23;85.04
67987;BME280;54767;53.800;15.956;2023-02-20T15:16:19;99089.20;;;7.21;84.96
67987;BME280;54767;53.800;15.956;2023-02-20T15:18:48;99101.89;;;7.22;85.07
67987;BME280;54767;53.800;15.956;2023-02-20T15:21:35;99102.24;;;7.23;85.06
67987;BME280;54767;53.800;15.956;2023-02-20T15:24:27;99097.72;;;7.23;85.05
67987;BME280;54767;53.800;15.956;2023-02-20T15:29:40;99097.56;;;7.20;85.22